Time;durP1;ratioP1;P1;durP2;ratioP2;P2;SDS_P1;SDS_P2;PMS_P1;PMS_P2;Temp;Humidity;BMP_temperature;BMP_pressure;BME280_temperature;BME280_humidity;BME280_pressure;Samples;Min_cycle;Max_cycle;Signal;HPM_P1;HPM_P2
2021/05/18 00:01:01;;;;;;;2.97;1.70;;;;;;;;;;5022652;28;20220;-69
2021/05/18 00:03:27;;;;;;;1.93;1.83;;;;;;;;;;5023568;28;20246;-69
2021/05/18 00:05:54;;;;;;;3.93;1.60;;;;;;;;;;5021035;28;20188;-69
2021/05/18 00:08:23;;;;;;;2.90;1.60;;;;;;;;;;5019566;28;20224;-68
2021/05/18 00:13:38;;;;;;;1.83;1.70;;;;;;;;;;5022652;28;20554;-69
2021/05/18 00:16:05;;;;;;;2.07;1.60;;;;;;;;;;5024310;28;20188;-69
2021/05/18 00:18:31;;;;;;;1.93;1.83;;;;;;;;;;5023684;28;20196;-69
2021/05/18 00:20:57;;;;;;;2.73;1.50;;;;;;;;;;5022367;28;20209;-69
2021/05/18 00:23:23;;;;;;;2.70;1.53;;;;;;;;;;5024413;28;20660;-69
2021/05/18 00:25:50;;;;;;;3.30;1.70;;;;;;;;;;5021523;28;20207;-69
2021/05/18 00:28:16;;;;;;;2.00;1.70;;;;;;;;;;5028308;28;20192;-68
2021/05/18 00:30:42;;;;;;;1.90;1.73;;;;;;;;;;5018917;28;20220;-69
2021/05/18 00:33:12;;;;;;;1.80;1.40;;;;;;;;;;5022213;28;20188;-68
2021/05/18 00:35:38;;;;;;;1.73;1.63;;;;;;;;;;5022179;28;20191;-69
2021/05/18 00:38:05;;;;;;;2.40;1.60;;;;;;;;;;5024164;28;20188;-70
2021/05/18 00:40:31;;;;;;;3.47;1.73;;;;;;;;;;5027863;28;20258;-69
2021/05/18 00:42:57;;;;;;;1.50;1.40;;;;;;;;;;5020929;28;20563;-69
2021/05/18 00:45:42;;;;;;;2.13;1.70;;;;;;;;;;5023074;28;20188;-69
2021/05/18 00:48:09;;;;;;;1.97;1.70;;;;;;;;;;5021252;28;20544;-69
2021/05/18 00:50:36;;;;;;;2.60;1.50;;;;;;;;;;5026713;28;20236;-69
2021/05/18 00:53:02;;;;;;;1.40;1.30;;;;;;;;;;5023780;28;20200;-69
2021/05/18 01:00:39;;;;;;;2.87;1.60;;;;;;;;;;5021549;28;20315;-69
2021/05/18 01:03:05;;;;;;;2.87;1.63;;;;;;;;;;5016971;28;20304;-69
2021/05/18 01:08:16;;;;;;;1.60;1.50;;;;;;;;;;5025797;28;20202;-69
2021/05/18 01:10:43;;;;;;;1.77;1.60;;;;;;;;;;5016598;28;20200;-70
2021/05/18 01:13:10;;;;;;;2.30;1.77;;;;;;;;;;5020946;28;20279;-69
2021/05/18 01:15:38;;;;;;;2.97;1.80;;;;;;;;;;5029765;28;20267;-69
2021/05/18 01:18:04;;;;;;;3.77;1.63;;;;;;;;;;5025768;28;20184;-69
2021/05/18 01:20:30;;;;;;;1.60;1.50;;;;;;;;;;5027300;28;20561;-69
2021/05/18 01:22:56;;;;;;;4.20;1.50;;;;;;;;;;5025242;28;20243;-69
2021/05/18 01:25:22;;;;;;;1.60;1.50;;;;;;;;;;5026671;28;20219;-69
2021/05/18 01:27:48;;;;;;;2.23;1.77;;;;;;;;;;5023296;28;20212;-69
2021/05/18 01:30:15;;;;;;;2.73;1.67;;;;;;;;;;5027199;28;20208;-69
2021/05/18 01:32:43;;;;;;;1.60;1.50;;;;;;;;;;5038601;28;20188;-68
2021/05/18 01:35:11;;;;;;;1.50;1.40;;;;;;;;;;5043413;28;20192;-69
2021/05/18 01:37:37;;;;;;;1.77;1.50;;;;;;;;;;5037744;28;20211;-69
2021/05/18 01:40:13;;;;;;;1.97;1.50;;;;;;;;;;5023532;28;20859;-69
2021/05/18 01:42:49;;;;;;;3.77;1.73;;;;;;;;;;5017793;28;20230;-68
2021/05/18 01:45:20;;;;;;;2.93;2.07;;;;;;;;;;5026830;28;20179;-69
2021/05/18 01:47:50;;;;;;;1.70;1.60;;;;;;;;;;5027031;28;20659;-69
2021/05/18 01:50:17;;;;;;;3.40;1.83;;;;;;;;;;5026658;28;20649;-69
2021/05/18 01:52:43;;;;;;;3.43;1.97;;;;;;;;;;5020528;28;20184;-68
2021/05/18 01:55:11;;;;;;;3.03;2.00;;;;;;;;;;5024408;28;20193;-69
2021/05/18 01:57:37;;;;;;;4.03;2.00;;;;;;;;;;5031752;28;20181;-69
2021/05/18 02:00:04;;;;;;;6.47;2.00;;;;;;;;;;5029256;28;20228;-69
2021/05/18 02:02:30;;;;;;;2.50;2.30;;;;;;;;;;5024186;28;20195;-68
2021/05/18 02:04:58;;;;;;;6.43;2.20;;;;;;;;;;5020116;28;20565;-69
2021/05/18 02:07:25;;;;;;;3.37;2.00;;;;;;;;;;5022264;28;20667;-69
2021/05/18 02:09:51;;;;;;;1.90;1.80;;;;;;;;;;5026260;28;20669;-69
2021/05/18 02:12:18;;;;;;;1.83;1.73;;;;;;;;;;5023890;28;20223;-69
2021/05/18 02:14:47;;;;;;;2.13;2.00;;;;;;;;;;5021281;28;20191;-69
2021/05/18 02:20:37;;;;;;;2.37;1.80;;;;;;;;;;5023381;28;20204;-69
2021/05/18 02:25:19;;;;;;;2.67;1.87;;;;;;;;;;5022946;28;20203;-69
2021/05/18 02:27:45;;;;;;;2.43;1.70;;;;;;;;;;5026718;28;20836;-69
2021/05/18 02:30:12;;;;;;;2.00;1.67;;;;;;;;;;5018615;28;20262;-70
2021/05/18 02:32:38;;;;;;;2.13;1.87;;;;;;;;;;5024715;28;20195;-68
2021/05/18 02:35:06;;;;;;;3.30;1.93;;;;;;;;;;5021402;28;20577;-69
2021/05/18 02:37:32;;;;;;;1.70;1.60;;;;;;;;;;5022067;28;20604;-69
2021/05/18 02:39:58;;;;;;;1.80;1.70;;;;;;;;;;5022137;28;20593;-69
2021/05/18 02:42:24;;;;;;;1.87;1.70;;;;;;;;;;5023591;28;20195;-69
2021/05/18 02:50:04;;;;;;;1.93;1.83;;;;;;;;;;5026324;28;20903;-70
2021/05/18 02:52:32;;;;;;;2.53;1.70;;;;;;;;;;5021009;28;20188;-70
2021/05/18 02:54:58;;;;;;;1.90;1.70;;;;;;;;;;5018285;28;20636;-70
2021/05/18 02:57:35;;;;;;;4.07;1.50;;;;;;;;;;5021171;28;20189;-69
2021/05/18 03:00:20;;;;;;;1.80;1.70;;;;;;;;;;5023371;28;20241;-69
2021/05/18 03:02:48;;;;;;;1.43;1.20;;;;;;;;;;5020979;28;20232;-69
2021/05/18 03:05:14;;;;;;;1.60;1.50;;;;;;;;;;5025328;28;20279;-69
2021/05/18 03:07:40;;;;;;;2.50;1.60;;;;;;;;;;5023285;28;20194;-69
2021/05/18 03:10:07;;;;;;;1.83;1.73;;;;;;;;;;5022620;28;20212;-70
2021/05/18 03:12:33;;;;;;;2.53;1.60;;;;;;;;;;5017340;28;20217;-70
2021/05/18 03:14:59;;;;;;;2.67;1.87;;;;;;;;;;5018210;28;20189;-70
2021/05/18 03:17:26;;;;;;;2.13;1.80;;;;;;;;;;5023990;28;20196;-69
2021/05/18 03:19:52;;;;;;;2.00;1.90;;;;;;;;;;5022889;28;20604;-69
2021/05/18 03:22:18;;;;;;;2.33;1.60;;;;;;;;;;5019995;28;20199;-69
2021/05/18 03:24:44;;;;;;;5.00;1.73;;;;;;;;;;5017199;28;20610;-69
2021/05/18 03:27:10;;;;;;;1.73;1.60;;;;;;;;;;5027737;28;20188;-69
2021/05/18 03:29:37;;;;;;;2.30;1.70;;;;;;;;;;5023201;28;20269;-70
2021/05/18 03:34:47;;;;;;;2.00;1.83;;;;;;;;;;5022638;28;20671;-69
2021/05/18 03:37:25;;;;;;;1.60;1.50;;;;;;;;;;5020029;28;20187;-69
2021/05/18 03:39:55;;;;;;;2.07;1.40;;;;;;;;;;5032443;28;20204;-69
2021/05/18 03:42:34;;;;;;;1.47;1.23;;;;;;;;;;5019489;28;20566;-68
2021/05/18 03:45:49;;;;;;;1.13;1.13;;;;;;;;;;5014329;28;20195;-69
2021/05/18 04:17:05;;;;;;;1.27;1.20;;;;;;;;;;5022557;28;20246;-69
2021/05/18 04:19:41;;;;;;;3.90;1.73;;;;;;;;;;5024702;28;20208;-69
2021/05/18 04:22:55;;;;;;;1.30;1.30;;;;;;;;;;5029161;28;20219;-70
2021/05/18 05:00:05;;;;;;;2.67;1.70;;;;;;;;;;5028718;28;20951;-70
2021/05/18 05:10:22;;;;;;;1.47;1.37;;;;;;;;;;5023930;28;20711;-69
2021/05/18 05:15:33;;;;;;;1.40;1.30;;;;;;;;;;5023019;28;20195;-70
2021/05/18 05:17:59;;;;;;;1.70;1.60;;;;;;;;;;5025884;28;20169;-70
2021/05/18 05:20:25;;;;;;;2.13;1.20;;;;;;;;;;5027645;28;20200;-71
2021/05/18 05:22:51;;;;;;;1.73;1.63;;;;;;;;;;5025648;28;20659;-69
2021/05/18 05:25:17;;;;;;;2.23;2.10;;;;;;;;;;5025423;28;20267;-70
2021/05/18 05:27:43;;;;;;;2.20;1.80;;;;;;;;;;5023624;28;20183;-70
2021/05/18 05:30:09;;;;;;;1.80;1.70;;;;;;;;;;5024181;28;20606;-71
2021/05/18 05:32:35;;;;;;;3.07;1.60;;;;;;;;;;5020321;28;20622;-70
2021/05/18 05:35:01;;;;;;;2.83;1.60;;;;;;;;;;5019879;28;20260;-69
2021/05/18 05:37:28;;;;;;;1.77;1.67;;;;;;;;;;5021080;28;20627;-69
2021/05/18 05:39:54;;;;;;;1.60;1.47;;;;;;;;;;5018434;28;20680;-68
2021/05/18 05:42:21;;;;;;;1.80;1.70;;;;;;;;;;5022918;28;20227;-69
2021/05/18 05:44:47;;;;;;;3.53;1.90;;;;;;;;;;5020319;28;20196;-69
2021/05/18 05:47:13;;;;;;;1.93;1.83;;;;;;;;;;5019396;28;20192;-68
2021/05/18 05:49:40;;;;;;;2.47;1.80;;;;;;;;;;5026462;28;20579;-70
2021/05/18 05:52:06;;;;;;;4.97;2.10;;;;;;;;;;5025615;28;20188;-68
2021/05/18 05:54:34;;;;;;;2.93;2.20;;;;;;;;;;5013551;28;20186;-68
2021/05/18 05:57:00;;;;;;;2.30;1.60;;;;;;;;;;5025581;28;20645;-68
2021/05/18 05:59:26;;;;;;;2.53;1.63;;;;;;;;;;5023619;28;20212;-68
2021/05/18 06:01:52;;;;;;;1.47;1.37;;;;;;;;;;5025267;28;20528;-70
2021/05/18 06:04:18;;;;;;;2.13;1.80;;;;;;;;;;5020903;28;20192;-70
2021/05/18 06:06:45;;;;;;;2.10;1.90;;;;;;;;;;5021715;28;20196;-69
2021/05/18 06:09:11;;;;;;;2.50;1.90;;;;;;;;;;5016954;28;20219;-70
2021/05/18 06:48:30;;;;;;;2.57;1.80;;;;;;;;;;5021124;28;20188;-71
2021/05/18 06:50:56;;;;;;;1.37;1.33;;;;;;;;;;5017941;28;20219;-71
2021/05/18 06:53:22;;;;;;;2.17;1.60;;;;;;;;;;5025385;28;20208;-71
2021/05/18 06:55:50;;;;;;;1.60;1.50;;;;;;;;;;5021868;28;20501;-70
2021/05/18 06:58:34;;;;;;;3.27;1.63;;;;;;;;;;5038818;28;20623;-70
2021/05/18 07:01:00;;;;;;;2.23;1.40;;;;;;;;;;5029814;28;20201;-70
2021/05/18 07:03:32;;;;;;;1.73;1.50;;;;;;;;;;5029834;28;20176;-70
2021/05/18 07:11:13;;;;;;;1.53;1.43;;;;;;;;;;5029740;28;20227;-71
2021/05/18 07:13:39;;;;;;;2.17;1.50;;;;;;;;;;5029031;28;20442;-70
2021/05/18 07:16:06;;;;;;;1.43;1.33;;;;;;;;;;5022498;28;20223;-70
2021/05/18 07:18:32;;;;;;;2.33;1.30;;;;;;;;;;5025003;28;20884;-70
2021/05/18 07:20:58;;;;;;;1.40;1.30;;;;;;;;;;5019605;28;20204;-71
2021/05/18 07:23:25;;;;;;;1.63;1.53;;;;;;;;;;5013537;28;20707;-70
2021/05/18 07:25:52;;;;;;;1.83;1.43;;;;;;;;;;5018234;28;20785;-70
2021/05/18 07:28:19;;;;;;;1.60;1.50;;;;;;;;;;5017363;28;20184;-69
2021/05/18 07:30:46;;;;;;;1.10;1.10;;;;;;;;;;5017144;28;20220;-69
2021/05/18 07:33:12;;;;;;;2.10;1.30;;;;;;;;;;5015243;28;20370;-69
2021/05/18 07:35:38;;;;;;;1.40;1.30;;;;;;;;;;5021265;28;20192;-70
2021/05/18 07:38:05;;;;;;;1.00;1.00;;;;;;;;;;5022032;28;20189;-70
2021/05/18 07:40:32;;;;;;;1.88;1.10;;;;;;;;;;5017457;28;20214;-71
2021/05/18 07:42:59;;;;;;;1.40;1.30;;;;;;;;;;5012127;28;20193;-70
2021/05/18 07:45:29;;;;;;;3.53;1.20;;;;;;;;;;5012635;28;20185;-71
2021/05/18 07:48:02;;;;;;;2.30;1.40;;;;;;;;;;5024769;28;20184;-71
2021/05/18 07:50:45;;;;;;;1.17;1.17;;;;;;;;;;5024404;28;20211;-70
2021/05/18 08:06:54;;;;;;;1.40;1.30;;;;;;;;;;5023146;28;20238;-70
2021/05/18 08:09:22;;;;;;;2.67;1.40;;;;;;;;;;5024346;28;20208;-70
2021/05/18 08:11:48;;;;;;;1.70;1.37;;;;;;;;;;5021274;28;20217;-70
2021/05/18 08:14:15;;;;;;;2.30;1.60;;;;;;;;;;5026190;28;20267;-70
2021/05/18 09:29:32;;;;;;;2.97;1.65;;;;;;;;;;5018237;28;20199;-69
2021/05/18 10:35:32;;;;;;;3.58;1.40;;;;;;;;;;5026018;28;20188;-72
2021/05/18 10:38:05;;;;;;;1.70;1.42;;;;;;;;;;5022983;28;20620;-70
2021/05/18 10:40:32;;;;;;;2.60;1.25;;;;;;;;;;5022464;28;20283;-70
2021/05/18 10:43:05;;;;;;;4.13;1.20;;;;;;;;;;5023965;28;20658;-70
2021/05/18 10:45:50;;;;;;;1.85;1.23;;;;;;;;;;5020455;28;20200;-70
2021/05/18 10:48:16;;;;;;;4.38;1.10;;;;;;;;;;5020384;28;20193;-70
2021/05/18 10:50:42;;;;;;;2.03;1.20;;;;;;;;;;5025954;28;20208;-70
2021/05/18 10:53:20;;;;;;;1.80;0.98;;;;;;;;;;5019718;28;20192;-71
2021/05/18 10:56:19;;;;;;;3.08;1.10;;;;;;;;;;5019622;28;20935;-73
2021/05/18 10:58:45;;;;;;;2.63;1.75;;;;;;;;;;5018434;28;20296;-71
2021/05/18 11:01:11;;;;;;;1.35;0.82;;;;;;;;;;5023639;28;20431;-71
2021/05/18 11:03:37;;;;;;;4.82;0.98;;;;;;;;;;5015156;28;20192;-71
2021/05/18 11:06:09;;;;;;;2.67;1.60;;;;;;;;;;5008176;28;20323;-72
2021/05/18 11:08:35;;;;;;;1.67;0.82;;;;;;;;;;5025781;28;20196;-71
2021/05/18 11:11:04;;;;;;;1.65;1.27;;;;;;;;;;5022631;28;20207;-72
2021/05/18 11:13:31;;;;;;;3.35;1.25;;;;;;;;;;5016799;28;20242;-72
2021/05/18 11:15:58;;;;;;;1.45;0.98;;;;;;;;;;5020054;28;20199;-72
2021/05/18 11:18:31;;;;;;;2.20;1.23;;;;;;;;;;5023213;28;20176;-71
2021/05/18 11:21:06;;;;;;;1.23;1.08;;;;;;;;;;5004687;28;20250;-71
2021/05/18 11:23:33;;;;;;;1.77;1.10;;;;;;;;;;5023646;28;20194;-71
2021/05/18 11:26:05;;;;;;;1.20;0.80;;;;;;;;;;5024925;28;20355;-71
2021/05/18 11:28:33;;;;;;;1.88;1.05;;;;;;;;;;5022479;28;20193;-71
2021/05/18 11:31:03;;;;;;;2.63;1.25;;;;;;;;;;5019016;28;20278;-72
2021/05/18 11:33:34;;;;;;;2.20;1.08;;;;;;;;;;5020640;28;20226;-72
2021/05/18 11:36:03;;;;;;;4.20;0.95;;;;;;;;;;5017812;28;20177;-72
2021/05/18 11:38:30;;;;;;;1.92;0.95;;;;;;;;;;5020193;28;20279;-71
2021/05/18 11:40:56;;;;;;;2.28;1.10;;;;;;;;;;5017745;28;20691;-71
2021/05/18 11:43:23;;;;;;;2.50;1.00;;;;;;;;;;5020919;28;20201;-71
2021/05/18 11:45:51;;;;;;;1.60;0.75;;;;;;;;;;5026899;28;20192;-72
2021/05/18 11:48:18;;;;;;;1.90;1.20;;;;;;;;;;5021217;28;20183;-72
2021/05/18 11:50:45;;;;;;;2.83;1.02;;;;;;;;;;5016234;28;20627;-70
2021/05/18 11:53:30;;;;;;;1.48;1.00;;;;;;;;;;5023642;28;20181;-72
2021/05/18 11:55:57;;;;;;;2.55;1.13;;;;;;;;;;5015595;28;20180;-70
2021/05/18 11:58:23;;;;;;;2.90;1.00;;;;;;;;;;5018143;28;20204;-71
2021/05/18 12:00:50;;;;;;;1.63;1.10;;;;;;;;;;5021445;28;20208;-71
2021/05/18 12:03:16;;;;;;;1.00;0.90;;;;;;;;;;5022270;28;20272;-69
2021/05/18 12:05:55;;;;;;;2.25;1.10;;;;;;;;;;5015553;28;20234;-69
2021/05/18 12:08:28;;;;;;;1.30;0.98;;;;;;;;;;5022978;28;20196;-71
2021/05/18 12:10:54;;;;;;;2.03;1.50;;;;;;;;;;5024781;28;20274;-71
2021/05/18 12:13:32;;;;;;;3.03;1.50;;;;;;;;;;5026091;28;20188;-69
2021/05/18 12:16:05;;;;;;;2.08;1.48;;;;;;;;;;5025643;28;20872;-71
2021/05/18 12:18:32;;;;;;;1.70;1.00;;;;;;;;;;5030379;28;20176;-71
2021/05/18 12:21:02;;;;;;;1.98;1.20;;;;;;;;;;5019698;28;20236;-71
2021/05/18 12:23:28;;;;;;;1.38;1.20;;;;;;;;;;5017996;28;20191;-71
2021/05/18 12:26:08;;;;;;;1.77;1.30;;;;;;;;;;5019286;28;20176;-71
2021/05/18 12:28:34;;;;;;;0.80;0.80;;;;;;;;;;5025679;28;20183;-71
2021/05/18 12:31:00;;;;;;;1.00;0.80;;;;;;;;;;5022090;28;20718;-71
2021/05/18 12:33:38;;;;;;;2.10;0.88;;;;;;;;;;5022313;28;20193;-71
2021/05/18 12:36:05;;;;;;;3.05;0.98;;;;;;;;;;5025570;28;20181;-71
2021/05/18 12:38:31;;;;;;;2.90;1.33;;;;;;;;;;5026180;28;20302;-71
2021/05/18 12:41:04;;;;;;;2.22;1.20;;;;;;;;;;5027530;28;20258;-71
2021/05/18 12:43:40;;;;;;;3.78;1.17;;;;;;;;;;5022579;28;21185;-71
2021/05/18 12:46:11;;;;;;;2.70;0.90;;;;;;;;;;5026446;28;20185;-71
2021/05/18 12:48:37;;;;;;;2.33;0.82;;;;;;;;;;5026711;28;20579;-71
2021/05/18 12:51:15;;;;;;;1.40;0.90;;;;;;;;;;5027698;28;20220;-71
2021/05/18 12:53:41;;;;;;;2.05;0.82;;;;;;;;;;5027946;28;20225;-71
2021/05/18 12:56:09;;;;;;;2.42;1.23;;;;;;;;;;5030700;28;20188;-71
2021/05/18 12:58:36;;;;;;;1.98;0.73;;;;;;;;;;5028899;28;20184;-71
2021/05/18 13:01:09;;;;;;;3.10;0.80;;;;;;;;;;5026201;28;20220;-71
2021/05/18 13:03:36;;;;;;;1.02;0.70;;;;;;;;;;5030965;28;20599;-71
2021/05/18 13:06:02;;;;;;;0.55;0.55;;;;;;;;;;5024155;28;20263;-71
2021/05/18 13:08:46;;;;;;;1.80;0.80;;;;;;;;;;5026287;28;20184;-71
2021/05/18 13:12:11;;;;;;;2.53;1.00;;;;;;;;;;5028253;28;20219;-71
2021/05/18 13:14:04;;;;;;;2.03;0.80;;;;;;;;;;5020599;28;20204;-71
2021/05/18 13:16:34;;;;;;;1.10;0.80;;;;;;;;;;5031643;28;20203;-71
2021/05/18 13:19:01;;;;;;;1.13;0.90;;;;;;;;;;5025147;28;20231;-72
2021/05/18 13:21:38;;;;;;;1.02;0.82;;;;;;;;;;5026432;28;20320;-71
2021/05/18 13:26:34;;;;;;;2.42;1.20;;;;;;;;;;5023286;28;20180;-70
2021/05/18 13:29:00;;;;;;;1.25;0.90;;;;;;;;;;5024721;28;20207;-70
2021/05/18 13:31:27;;;;;;;2.40;1.00;;;;;;;;;;5031903;28;20232;-71
2021/05/18 13:33:53;;;;;;;2.17;1.20;;;;;;;;;;5027210;28;20211;-70
2021/05/18 13:36:19;;;;;;;1.85;1.00;;;;;;;;;;5030616;28;20222;-70
2021/05/18 13:38:45;;;;;;;1.08;1.08;;;;;;;;;;5037288;28;20255;-70
2021/05/18 13:41:11;;;;;;;1.20;1.10;;;;;;;;;;5029784;28;20227;-70
2021/05/18 13:43:37;;;;;;;2.22;1.10;;;;;;;;;;5027429;28;20191;-70
2021/05/18 13:46:03;;;;;;;1.52;1.00;;;;;;;;;;5026546;28;20593;-70
2021/05/18 13:48:30;;;;;;;1.88;0.98;;;;;;;;;;5026869;28;20189;-69
2021/05/18 13:50:57;;;;;;;2.45;1.20;;;;;;;;;;5028121;28;20211;-70
2021/05/18 13:53:23;;;;;;;0.95;0.95;;;;;;;;;;5029362;28;20177;-71
2021/05/18 13:55:49;;;;;;;1.35;1.05;;;;;;;;;;5022474;28;20192;-69
2021/05/18 13:58:15;;;;;;;2.03;1.67;;;;;;;;;;5029263;28;20254;-71
2021/05/18 14:00:41;;;;;;;0.90;0.77;;;;;;;;;;5026024;28;20220;-69
2021/05/18 14:03:07;;;;;;;0.93;0.90;;;;;;;;;;5031546;28;20200;-69
2021/05/18 14:05:33;;;;;;;0.90;0.90;;;;;;;;;;5032577;28;20220;-69
2021/05/18 14:08:25;;;;;;;1.30;1.08;;;;;;;;;;5029784;28;20210;-69
2021/05/18 14:10:54;;;;;;;2.53;1.25;;;;;;;;;;5025950;28;20203;-69
2021/05/18 14:13:20;;;;;;;2.75;1.80;;;;;;;;;;5024838;28;20215;-69
2021/05/18 14:15:46;;;;;;;1.98;1.13;;;;;;;;;;5023966;28;20284;-69
2021/05/18 14:18:13;;;;;;;1.42;1.00;;;;;;;;;;5031337;28;20230;-69
2021/05/18 14:20:39;;;;;;;1.20;1.13;;;;;;;;;;5027573;28;20581;-69
2021/05/18 14:23:06;;;;;;;1.73;1.25;;;;;;;;;;5026536;28;20215;-69
2021/05/18 14:25:32;;;;;;;1.10;0.75;;;;;;;;;;5023696;28;20322;-69
2021/05/18 14:27:58;;;;;;;0.77;0.77;;;;;;;;;;5028614;28;20188;-69
2021/05/18 14:30:25;;;;;;;1.10;0.90;;;;;;;;;;5026484;28;20212;-69
2021/05/18 14:32:51;;;;;;;1.05;0.88;;;;;;;;;;5026129;28;20899;-69
2021/05/18 14:35:17;;;;;;;0.95;0.70;;;;;;;;;;5028189;28;20181;-69
2021/05/18 14:37:47;;;;;;;1.42;0.80;;;;;;;;;;5023053;28;20226;-69
2021/05/18 14:42:59;;;;;;;1.38;1.00;;;;;;;;;;5021188;28;20739;-71
2021/05/18 14:45:29;;;;;;;2.97;0.82;;;;;;;;;;5027406;28;20607;-69
2021/05/18 14:55:51;;;;;;;2.25;1.85;;;;;;;;;;5022324;28;20211;-69
2021/05/18 14:58:17;;;;;;;0.80;0.65;;;;;;;;;;5027279;28;20180;-69
2021/05/18 15:00:44;;;;;;;1.73;1.00;;;;;;;;;;5024860;28;20239;-69
2021/05/18 15:03:10;;;;;;;0.80;0.80;;;;;;;;;;5025381;28;20250;-71
2021/05/18 15:05:36;;;;;;;1.10;0.90;;;;;;;;;;5027666;28;20712;-71
2021/05/18 15:08:03;;;;;;;1.20;1.17;;;;;;;;;;5027685;28;20196;-69
2021/05/18 15:10:29;;;;;;;1.08;1.02;;;;;;;;;;5019159;28;20208;-73
2021/05/18 15:12:55;;;;;;;0.80;0.80;;;;;;;;;;5025114;28;20180;-69
2021/05/18 15:15:21;;;;;;;0.75;0.75;;;;;;;;;;5025035;28;20771;-69
2021/05/18 15:17:48;;;;;;;2.25;1.00;;;;;;;;;;5024083;28;20570;-69
2021/05/18 15:20:15;;;;;;;1.00;0.80;;;;;;;;;;5021470;28;22346;-69
2021/05/18 15:22:41;;;;;;;1.05;0.98;;;;;;;;;;5028531;28;20179;-70
2021/05/18 15:25:07;;;;;;;1.15;1.00;;;;;;;;;;5026023;28;20187;-70
2021/05/18 15:27:33;;;;;;;3.85;2.92;;;;;;;;;;5025499;28;20704;-72
2021/05/18 15:29:59;;;;;;;1.90;1.20;;;;;;;;;;5029128;28;20226;-70
2021/05/18 15:32:25;;;;;;;1.67;0.90;;;;;;;;;;5018345;28;20177;-69
2021/05/18 15:34:51;;;;;;;1.15;1.00;;;;;;;;;;5021718;28;20177;-69
2021/05/18 15:37:17;;;;;;;3.00;1.00;;;;;;;;;;5028345;28;20237;-71
2021/05/18 15:39:44;;;;;;;1.80;1.05;;;;;;;;;;5019489;28;20199;-69
2021/05/18 15:42:10;;;;;;;0.90;0.90;;;;;;;;;;5024580;28;20188;-70
2021/05/18 15:44:36;;;;;;;1.13;0.90;;;;;;;;;;5025152;28;20226;-70
2021/05/18 15:47:04;;;;;;;0.82;0.80;;;;;;;;;;5022627;28;20199;-70
2021/05/18 15:49:30;;;;;;;1.35;1.00;;;;;;;;;;5020636;28;20235;-69
2021/05/18 15:51:57;;;;;;;2.10;1.05;;;;;;;;;;5020574;28;20216;-69
2021/05/18 15:54:23;;;;;;;1.58;1.00;;;;;;;;;;5024044;28;20176;-71
2021/05/18 15:56:49;;;;;;;1.75;1.00;;;;;;;;;;5020334;28;20184;-70
2021/05/18 15:59:15;;;;;;;1.80;1.10;;;;;;;;;;5016901;28;20557;-70
2021/05/18 16:01:42;;;;;;;2.05;0.90;;;;;;;;;;5021300;28;20187;-70
2021/05/18 16:04:08;;;;;;;1.25;1.15;;;;;;;;;;5024173;28;20207;-70
2021/05/18 16:06:39;;;;;;;1.30;0.93;;;;;;;;;;5018514;28;20192;-69
2021/05/18 16:09:05;;;;;;;1.40;1.25;;;;;;;;;;5028875;28;20169;-69
2021/05/18 16:11:31;;;;;;;2.55;1.17;;;;;;;;;;5032721;28;20215;-71
2021/05/18 16:13:57;;;;;;;1.95;1.38;;;;;;;;;;5026382;28;20203;-70
2021/05/18 16:16:24;;;;;;;1.48;1.38;;;;;;;;;;5027887;28;20195;-71
2021/05/18 16:18:50;;;;;;;1.88;1.10;;;;;;;;;;5023847;28;20690;-73
2021/05/18 16:21:18;;;;;;;1.88;1.17;;;;;;;;;;5023999;28;20208;-72
2021/05/18 16:23:47;;;;;;;1.40;1.15;;;;;;;;;;5023297;28;20181;-69
2021/05/18 16:26:13;;;;;;;2.47;1.25;;;;;;;;;;5026987;28;20672;-70
2021/05/18 16:28:40;;;;;;;1.08;1.02;;;;;;;;;;5027228;28;20208;-70
2021/05/18 16:31:07;;;;;;;1.52;1.05;;;;;;;;;;5025240;28;20209;-70
2021/05/18 16:33:34;;;;;;;3.28;1.33;;;;;;;;;;5022657;28;20172;-70
2021/05/18 16:36:00;;;;;;;2.45;1.42;;;;;;;;;;5023661;28;20200;-70
2021/05/18 16:38:26;;;;;;;3.97;1.42;;;;;;;;;;5026168;28;20188;-70
2021/05/18 16:40:53;;;;;;;2.88;1.38;;;;;;;;;;5034377;28;20223;-70
2021/05/18 16:43:20;;;;;;;5.03;1.90;;;;;;;;;;5024550;28;20247;-70
2021/05/18 16:45:46;;;;;;;3.05;1.63;;;;;;;;;;5031948;28;20194;-70
2021/05/18 16:48:13;;;;;;;1.40;1.30;;;;;;;;;;5028741;28;20189;-70
2021/05/18 16:50:39;;;;;;;3.42;1.30;;;;;;;;;;5027635;28;20329;-70
2021/05/18 16:53:05;;;;;;;1.50;1.20;;;;;;;;;;5027052;28;20199;-70
2021/05/18 16:55:31;;;;;;;2.33;1.60;;;;;;;;;;5035475;28;20616;-70
2021/05/18 16:57:57;;;;;;;2.10;1.88;;;;;;;;;;5030467;28;20289;-71
2021/05/18 17:00:23;;;;;;;1.50;1.40;;;;;;;;;;5034274;28;20227;-70
2021/05/18 17:02:49;;;;;;;1.73;1.38;;;;;;;;;;5023520;28;20690;-71
2021/05/18 17:05:15;;;;;;;1.45;1.30;;;;;;;;;;5021848;28;20207;-70
2021/05/18 17:07:41;;;;;;;1.38;1.00;;;;;;;;;;5029314;28;20188;-70
2021/05/18 17:10:07;;;;;;;2.35;1.30;;;;;;;;;;5023230;28;20226;-70
2021/05/18 17:12:34;;;;;;;4.22;1.20;;;;;;;;;;5023243;28;20184;-70
2021/05/18 17:15:00;;;;;;;0.95;0.90;;;;;;;;;;5026824;28;20718;-70
2021/05/18 17:17:26;;;;;;;1.73;1.10;;;;;;;;;;5029252;28;20188;-70
2021/05/18 17:19:52;;;;;;;1.67;1.23;;;;;;;;;;5022248;28;20386;-70
2021/05/18 17:22:18;;;;;;;1.77;1.20;;;;;;;;;;5027850;28;20193;-70
2021/05/18 17:24:44;;;;;;;1.38;1.25;;;;;;;;;;5023998;28;20261;-70
2021/05/18 17:27:10;;;;;;;1.73;1.55;;;;;;;;;;5027706;28;20189;-70
2021/05/18 17:29:37;;;;;;;2.13;1.40;;;;;;;;;;5029808;28;20254;-70
2021/05/18 17:32:05;;;;;;;1.13;1.02;;;;;;;;;;5027374;28;20213;-70
2021/05/18 17:34:32;;;;;;;1.40;1.02;;;;;;;;;;5027042;28;20322;-70
2021/05/18 17:36:58;;;;;;;1.27;1.13;;;;;;;;;;5028049;28;20164;-71
2021/05/18 17:39:24;;;;;;;2.40;1.25;;;;;;;;;;5029625;28;20236;-70
2021/05/18 17:41:51;;;;;;;1.50;1.40;;;;;;;;;;5034915;28;20185;-69
2021/05/18 17:44:17;;;;;;;0.88;0.88;;;;;;;;;;5025029;28;20184;-69
2021/05/18 17:46:43;;;;;;;1.38;1.27;;;;;;;;;;5026222;28;20180;-69
2021/05/18 17:49:14;;;;;;;1.02;1.02;;;;;;;;;;5029283;28;20544;-69
2021/05/18 17:51:40;;;;;;;1.38;1.10;;;;;;;;;;5024813;28;20218;-69
2021/05/18 17:54:06;;;;;;;1.00;1.00;;;;;;;;;;5025378;28;20278;-69
2021/05/18 17:56:32;;;;;;;1.23;1.13;;;;;;;;;;5030838;28;20182;-69
2021/05/18 17:58:58;;;;;;;1.77;1.20;;;;;;;;;;5029831;28;20197;-70
2021/05/18 18:01:24;;;;;;;2.38;1.50;;;;;;;;;;5022357;28;20523;-70
2021/05/18 18:03:51;;;;;;;3.15;1.33;;;;;;;;;;5027949;28;20655;-69
2021/05/18 18:06:17;;;;;;;1.40;1.33;;;;;;;;;;5023392;28;20195;-69
2021/05/18 18:08:44;;;;;;;9.10;1.88;;;;;;;;;;5029923;28;20180;-69
2021/05/18 18:11:10;;;;;;;2.97;1.30;;;;;;;;;;5029388;28;20226;-69
2021/05/18 18:13:37;;;;;;;1.63;1.17;;;;;;;;;;5027625;28;20259;-69
2021/05/18 18:16:05;;;;;;;2.72;1.30;;;;;;;;;;5024488;28;20594;-69
2021/05/18 18:18:32;;;;;;;2.05;1.30;;;;;;;;;;5030287;28;20188;-69
2021/05/18 18:21:00;;;;;;;1.50;1.40;;;;;;;;;;5022779;28;20306;-69
2021/05/18 18:23:26;;;;;;;1.65;1.27;;;;;;;;;;5040215;28;20180;-70
2021/05/18 18:25:52;;;;;;;4.32;3.92;;;;;;;;;;5038078;28;20184;-69
2021/05/18 18:28:19;;;;;;;3.88;3.30;;;;;;;;;;5028883;28;20193;-69
2021/05/18 18:30:45;;;;;;;1.17;1.08;;;;;;;;;;5021183;28;20216;-69
2021/05/18 18:33:11;;;;;;;2.50;1.40;;;;;;;;;;5019281;28;20212;-70
2021/05/18 18:35:38;;;;;;;1.45;1.35;;;;;;;;;;5025602;28;20181;-69
2021/05/18 18:38:09;;;;;;;1.33;1.23;;;;;;;;;;5026192;28;20181;-69
2021/05/18 18:40:35;;;;;;;2.15;1.70;;;;;;;;;;5024229;28;20772;-69
2021/05/18 18:43:01;;;;;;;2.55;2.35;;;;;;;;;;5017934;28;20266;-69
2021/05/18 18:45:27;;;;;;;2.17;1.13;;;;;;;;;;5022813;28;20184;-74
2021/05/18 18:47:53;;;;;;;1.52;1.42;;;;;;;;;;5026443;28;20667;-71
2021/05/18 18:50:25;;;;;;;1.40;1.30;;;;;;;;;;5027642;28;20208;-71
2021/05/18 18:55:23;;;;;;;1.43;1.10;;;;;;;;;;5025973;28;20188;-72
2021/05/18 18:57:49;;;;;;;1.27;1.17;;;;;;;;;;5023218;28;20264;-71
2021/05/18 19:00:18;;;;;;;4.07;1.30;;;;;;;;;;5026414;28;20751;-70
2021/05/18 19:02:49;;;;;;;2.00;1.40;;;;;;;;;;5024046;28;20181;-70
2021/05/18 19:05:25;;;;;;;1.27;1.17;;;;;;;;;;5020427;28;20191;-71
2021/05/18 19:08:55;;;;;;;4.23;1.70;;;;;;;;;;5022977;28;20199;-71
2021/05/18 19:13:16;;;;;;;1.37;1.30;;;;;;;;;;5026271;28;20920;-71
2021/05/18 19:15:42;;;;;;;3.27;1.50;;;;;;;;;;5023483;28;20307;-72
2021/05/18 19:18:08;;;;;;;1.87;1.57;;;;;;;;;;5025622;28;20215;-71
2021/05/18 19:20:36;;;;;;;1.60;1.50;;;;;;;;;;5023032;28;20212;-71
2021/05/18 19:23:03;;;;;;;1.70;1.60;;;;;;;;;;5023850;28;20571;-71
2021/05/18 19:25:29;;;;;;;2.63;1.70;;;;;;;;;;5017656;28;20195;-72
2021/05/18 19:28:00;;;;;;;2.03;1.83;;;;;;;;;;5027795;28;20270;-71
2021/05/18 19:30:26;;;;;;;2.90;1.87;;;;;;;;;;5027011;28;20240;-71
2021/05/18 19:32:53;;;;;;;1.80;1.53;;;;;;;;;;5018866;28;20182;-71
2021/05/18 19:49:07;;;;;;;3.43;2.93;;;;;;;;;;5026271;28;20204;-71
2021/05/18 19:51:35;;;;;;;1.83;1.73;;;;;;;;;;5027552;28;20208;-72
2021/05/18 19:54:01;;;;;;;2.60;2.10;;;;;;;;;;5024590;28;20171;-72
2021/05/18 20:23:26;;;;;;;2.60;1.93;;;;;;;;;;5017653;28;20200;-72
2021/05/18 20:25:52;;;;;;;2.30;2.10;;;;;;;;;;5018396;28;20302;-70
2021/05/18 20:28:19;;;;;;;2.50;2.30;;;;;;;;;;5023082;28;20195;-72
2021/05/18 20:30:48;;;;;;;2.30;2.10;;;;;;;;;;5019660;28;20219;-71
2021/05/18 20:33:28;;;;;;;2.27;2.07;;;;;;;;;;5017478;28;20196;-72
2021/05/18 20:38:53;;;;;;;4.20;2.67;;;;;;;;;;5021100;28;20653;-73
2021/05/18 20:41:19;;;;;;;2.37;2.10;;;;;;;;;;5020442;28;20270;-70